sensor_id;sensor_type;location;lat;lon;timestamp;temperature;humidity
17483;DHT22;8858;52.308;20.994;2022-12-16T00:01:38;-2.00;99.90
17483;DHT22;8858;52.308;20.994;2022-12-16T00:04:07;-2.00;99.90
17483;DHT22;8858;52.308;20.994;2022-12-16T00:06:35;-2.00;99.90
17483;DHT22;8858;52.308;20.994;2022-12-16T00:09:04;-2.00;99.90
17483;DHT22;8858;52.308;20.994;2022-12-16T00:11:32;-2.00;99.90
17483;DHT22;8858;52.308;20.994;2022-12-16T00:14:00;-2.00;99.90
17483;DHT22;8858;52.308;20.994;2022-12-16T00:16:28;-2.00;99.90
17483;DHT22;8858;52.308;20.994;2022-12-16T00:18:56;-2.00;99.90
17483;DHT22;8858;52.308;20.994;2022-12-16T00:21:27;-2.00;99.90
17483;DHT22;8858;52.308;20.994;2022-12-16T00:23:55;-2.00;99.90
17483;DHT22;8858;52.308;20.994;2022-12-16T00:26:24;-2.00;99.90
17483;DHT22;8858;52.308;20.994;2022-12-16T00:28:52;-2.00;99.90
17483;DHT22;8858;52.308;20.994;2022-12-16T00:31:21;-2.00;99.90
17483;DHT22;8858;52.308;20.994;2022-12-16T00:33:49;-2.00;99.90
17483;DHT22;8858;52.308;20.994;2022-12-16T00:36:18;-2.10;99.90
17483;DHT22;8858;52.308;20.994;2022-12-16T00:38:48;-2.10;99.90
17483;DHT22;8858;52.308;20.994;2022-12-16T00:41:25;-2.00;99.90
17483;DHT22;8858;52.308;20.994;2022-12-16T00:43:53;-2.10;99.90
17483;DHT22;8858;52.308;20.994;2022-12-16T00:46:22;-2.10;99.90
17483;DHT22;8858;52.308;20.994;2022-12-16T00:48:50;-2.10;99.90
17483;DHT22;8858;52.308;20.994;2022-12-16T00:51:21;-2.10;99.90
17483;DHT22;8858;52.308;20.994;2022-12-16T00:53:51;-2.10;99.90
17483;DHT22;8858;52.308;20.994;2022-12-16T00:56:19;-2.10;99.90
17483;DHT22;8858;52.308;20.994;2022-12-16T00:58:50;-2.10;99.90
17483;DHT22;8858;52.308;20.994;2022-12-16T01:01:20;-2.10;99.90
17483;DHT22;8858;52.308;20.994;2022-12-16T01:03:49;-2.20;99.90
17483;DHT22;8858;52.308;20.994;2022-12-16T01:06:18;-2.20;99.90
17483;DHT22;8858;52.308;20.994;2022-12-16T01:08:46;-2.20;99.90
17483;DHT22;8858;52.308;20.994;2022-12-16T01:11:19;-2.20;99.90
17483;DHT22;8858;52.308;20.994;2022-12-16T01:13:50;-2.20;99.90
17483;DHT22;8858;52.308;20.994;2022-12-16T01:16:23;-2.20;99.90
17483;DHT22;8858;52.308;20.994;2022-12-16T01:18:51;-2.20;99.90
17483;DHT22;8858;52.308;20.994;2022-12-16T01:21:22;-2.20;99.90
17483;DHT22;8858;52.308;20.994;2022-12-16T01:23:51;-2.30;99.90
17483;DHT22;8858;52.308;20.994;2022-12-16T01:26:22;-2.30;99.90
17483;DHT22;8858;52.308;20.994;2022-12-16T01:28:54;-2.30;99.90
17483;DHT22;8858;52.308;20.994;2022-12-16T01:31:23;-2.30;99.90
17483;DHT22;8858;52.308;20.994;2022-12-16T01:33:51;-2.30;99.90
17483;DHT22;8858;52.308;20.994;2022-12-16T01:36:20;-2.30;99.90
17483;DHT22;8858;52.308;20.994;2022-12-16T01:38:49;-2.30;99.90
17483;DHT22;8858;52.308;20.994;2022-12-16T01:41:22;-2.30;99.90
17483;DHT22;8858;52.308;20.994;2022-12-16T01:43:51;-2.30;99.90
17483;DHT22;8858;52.308;20.994;2022-12-16T01:46:22;-2.30;99.90
17483;DHT22;8858;52.308;20.994;2022-12-16T01:48:54;-2.30;99.90
17483;DHT22;8858;52.308;20.994;2022-12-16T01:51:29;-2.40;99.90
17483;DHT22;8858;52.308;20.994;2022-12-16T01:54:02;-2.40;99.90
17483;DHT22;8858;52.308;20.994;2022-12-16T01:56:33;-2.40;99.90
17483;DHT22;8858;52.308;20.994;2022-12-16T01:59:03;-2.30;99.90
17483;DHT22;8858;52.308;20.994;2022-12-16T02:01:34;-2.40;99.90
17483;DHT22;8858;52.308;20.994;2022-12-16T02:04:03;-2.40;99.90
17483;DHT22;8858;52.308;20.994;2022-12-16T02:06:32;-2.40;99.90
17483;DHT22;8858;52.308;20.994;2022-12-16T02:09:02;-2.40;99.90
17483;DHT22;8858;52.308;20.994;2022-12-16T02:11:49;-2.40;99.90
17483;DHT22;8858;52.308;20.994;2022-12-16T02:14:48;-2.40;99.90
17483;DHT22;8858;52.308;20.994;2022-12-16T02:17:26;-2.40;99.90
17483;DHT22;8858;52.308;20.994;2022-12-16T02:23:15;-2.40;99.90
17483;DHT22;8858;52.308;20.994;2022-12-16T02:26:04;-2.40;99.90
17483;DHT22;8858;52.308;20.994;2022-12-16T02:28:57;-2.40;99.90
17483;DHT22;8858;52.308;20.994;2022-12-16T02:31:36;-2.40;99.90
17483;DHT22;8858;52.308;20.994;2022-12-16T02:34:17;-2.40;99.90
17483;DHT22;8858;52.308;20.994;2022-12-16T02:36:55;-2.40;99.90
17483;DHT22;8858;52.308;20.994;2022-12-16T02:39:30;-2.40;99.90
17483;DHT22;8858;52.308;20.994;2022-12-16T02:42:08;-2.50;99.90
17483;DHT22;8858;52.308;20.994;2022-12-16T02:44:43;-2.50;99.90
17483;DHT22;8858;52.308;20.994;2022-12-16T02:47:21;-2.50;99.90
17483;DHT22;8858;52.308;20.994;2022-12-16T02:49:52;-2.50;99.90
17483;DHT22;8858;52.308;20.994;2022-12-16T02:52:22;-2.50;99.90
17483;DHT22;8858;52.308;20.994;2022-12-16T02:54:54;-2.40;99.90
17483;DHT22;8858;52.308;20.994;2022-12-16T02:57:38;-2.50;99.90
17483;DHT22;8858;52.308;20.994;2022-12-16T03:00:10;-2.50;99.90
17483;DHT22;8858;52.308;20.994;2022-12-16T03:02:47;-2.50;99.90
17483;DHT22;8858;52.308;20.994;2022-12-16T03:05:20;-2.50;99.90
17483;DHT22;8858;52.308;20.994;2022-12-16T03:07:55;-2.50;99.90
17483;DHT22;8858;52.308;20.994;2022-12-16T03:10:28;-2.50;99.90
17483;DHT22;8858;52.308;20.994;2022-12-16T03:13:00;-2.60;99.90
17483;DHT22;8858;52.308;20.994;2022-12-16T03:15:31;-2.60;99.90
17483;DHT22;8858;52.308;20.994;2022-12-16T03:18:04;-2.60;99.90
17483;DHT22;8858;52.308;20.994;2022-12-16T03:20:37;-2.60;99.90
17483;DHT22;8858;52.308;20.994;2022-12-16T03:23:09;-2.60;99.90
17483;DHT22;8858;52.308;20.994;2022-12-16T03:25:42;-2.60;99.90
17483;DHT22;8858;52.308;20.994;2022-12-16T03:28:22;-2.60;99.90
17483;DHT22;8858;52.308;20.994;2022-12-16T03:31:00;-2.60;99.90
17483;DHT22;8858;52.308;20.994;2022-12-16T03:33:36;-2.60;99.90
17483;DHT22;8858;52.308;20.994;2022-12-16T03:36:09;-2.60;99.90
17483;DHT22;8858;52.308;20.994;2022-12-16T03:38:42;-2.60;99.90
17483;DHT22;8858;52.308;20.994;2022-12-16T03:41:13;-2.60;99.90
17483;DHT22;8858;52.308;20.994;2022-12-16T03:43:43;-2.60;99.90
17483;DHT22;8858;52.308;20.994;2022-12-16T03:46:12;-2.50;99.90
17483;DHT22;8858;52.308;20.994;2022-12-16T03:48:47;-2.60;99.90
17483;DHT22;8858;52.308;20.994;2022-12-16T03:51:16;-2.60;99.90
17483;DHT22;8858;52.308;20.994;2022-12-16T03:53:44;-2.60;99.90
17483;DHT22;8858;52.308;20.994;2022-12-16T03:56:15;-2.60;99.90
17483;DHT22;8858;52.308;20.994;2022-12-16T03:58:43;-2.60;99.90
17483;DHT22;8858;52.308;20.994;2022-12-16T04:01:12;-2.60;99.90
17483;DHT22;8858;52.308;20.994;2022-12-16T04:03:42;-2.60;99.90
17483;DHT22;8858;52.308;20.994;2022-12-16T04:06:11;-2.60;99.90
17483;DHT22;8858;52.308;20.994;2022-12-16T04:08:44;-2.60;99.90
17483;DHT22;8858;52.308;20.994;2022-12-16T04:11:14;-2.60;99.90
17483;DHT22;8858;52.308;20.994;2022-12-16T04:14:01;-2.60;99.90
17483;DHT22;8858;52.308;20.994;2022-12-16T04:16:51;-2.60;99.90
17483;DHT22;8858;52.308;20.994;2022-12-16T04:19:37;-2.60;99.90
17483;DHT22;8858;52.308;20.994;2022-12-16T04:22:28;-2.60;99.90
17483;DHT22;8858;52.308;20.994;2022-12-16T04:25:20;-2.60;99.90
17483;DHT22;8858;52.308;20.994;2022-12-16T04:27:50;-2.60;99.90
17483;DHT22;8858;52.308;20.994;2022-12-16T04:30:19;-2.60;99.90
17483;DHT22;8858;52.308;20.994;2022-12-16T04:32:51;-2.60;99.90
17483;DHT22;8858;52.308;20.994;2022-12-16T04:35:42;-2.60;99.90
17483;DHT22;8858;52.308;20.994;2022-12-16T04:38:32;-2.60;99.90
17483;DHT22;8858;52.308;20.994;2022-12-16T04:41:20;-2.60;99.90
17483;DHT22;8858;52.308;20.994;2022-12-16T04:44:06;-2.60;99.90
17483;DHT22;8858;52.308;20.994;2022-12-16T04:46:55;-2.60;99.90
17483;DHT22;8858;52.308;20.994;2022-12-16T04:49:40;-2.70;99.90
17483;DHT22;8858;52.308;20.994;2022-12-16T04:52:32;-2.70;99.90
17483;DHT22;8858;52.308;20.994;2022-12-16T04:55:19;-2.70;99.90
17483;DHT22;8858;52.308;20.994;2022-12-16T04:58:05;-2.60;99.90
17483;DHT22;8858;52.308;20.994;2022-12-16T05:00:52;-2.70;99.90
17483;DHT22;8858;52.308;20.994;2022-12-16T05:03:38;-2.70;99.90
17483;DHT22;8858;52.308;20.994;2022-12-16T05:06:25;-2.70;99.90
17483;DHT22;8858;52.308;20.994;2022-12-16T05:09:22;-2.70;99.90
17483;DHT22;8858;52.308;20.994;2022-12-16T05:12:11;-2.70;99.90
17483;DHT22;8858;52.308;20.994;2022-12-16T05:15:01;-2.70;99.90
17483;DHT22;8858;52.308;20.994;2022-12-16T05:17:46;-2.80;99.90
17483;DHT22;8858;52.308;20.994;2022-12-16T05:20:31;-2.80;99.90
17483;DHT22;8858;52.308;20.994;2022-12-16T05:23:17;-2.70;99.90
17483;DHT22;8858;52.308;20.994;2022-12-16T05:26:05;-2.70;99.90
17483;DHT22;8858;52.308;20.994;2022-12-16T05:28:52;-2.70;99.90
17483;DHT22;8858;52.308;20.994;2022-12-16T05:31:42;-2.70;99.90
17483;DHT22;8858;52.308;20.994;2022-12-16T05:34:28;-2.70;99.90
17483;DHT22;8858;52.308;20.994;2022-12-16T05:37:14;-2.70;99.90
17483;DHT22;8858;52.308;20.994;2022-12-16T05:40:02;-2.70;99.90
17483;DHT22;8858;52.308;20.994;2022-12-16T05:42:48;-2.70;99.90
17483;DHT22;8858;52.308;20.994;2022-12-16T05:45:43;-2.70;99.90
17483;DHT22;8858;52.308;20.994;2022-12-16T05:48:31;-2.70;99.90
17483;DHT22;8858;52.308;20.994;2022-12-16T05:51:17;-2.70;99.90
17483;DHT22;8858;52.308;20.994;2022-12-16T05:54:02;-2.70;99.90
17483;DHT22;8858;52.308;20.994;2022-12-16T05:56:48;-2.70;99.90
17483;DHT22;8858;52.308;20.994;2022-12-16T05:59:35;-2.70;99.90
17483;DHT22;8858;52.308;20.994;2022-12-16T06:02:22;-2.80;99.90
17483;DHT22;8858;52.308;20.994;2022-12-16T06:05:09;-2.80;99.90
17483;DHT22;8858;52.308;20.994;2022-12-16T06:07:55;-2.80;99.90
17483;DHT22;8858;52.308;20.994;2022-12-16T06:10:42;-2.70;99.90
17483;DHT22;8858;52.308;20.994;2022-12-16T06:13:28;-2.80;99.90
17483;DHT22;8858;52.308;20.994;2022-12-16T06:16:15;-2.70;99.90
17483;DHT22;8858;52.308;20.994;2022-12-16T06:19:06;-2.70;99.90
17483;DHT22;8858;52.308;20.994;2022-12-16T06:21:52;-2.70;99.90
17483;DHT22;8858;52.308;20.994;2022-12-16T06:24:38;-2.70;99.90
17483;DHT22;8858;52.308;20.994;2022-12-16T06:27:24;-2.70;99.90
17483;DHT22;8858;52.308;20.994;2022-12-16T06:30:11;-2.80;99.90
17483;DHT22;8858;52.308;20.994;2022-12-16T06:33:01;-2.70;99.90
17483;DHT22;8858;52.308;20.994;2022-12-16T06:35:47;-2.70;99.90
17483;DHT22;8858;52.308;20.994;2022-12-16T06:38:33;-2.70;99.90
17483;DHT22;8858;52.308;20.994;2022-12-16T06:41:24;-2.70;99.90
17483;DHT22;8858;52.308;20.994;2022-12-16T06:44:13;-2.70;99.90
17483;DHT22;8858;52.308;20.994;2022-12-16T06:46:59;-2.70;99.90
17483;DHT22;8858;52.308;20.994;2022-12-16T06:49:57;-2.70;99.90
17483;DHT22;8858;52.308;20.994;2022-12-16T06:52:45;-2.70;99.90
17483;DHT22;8858;52.308;20.994;2022-12-16T06:55:34;-2.70;99.90
17483;DHT22;8858;52.308;20.994;2022-12-16T06:58:20;-2.80;99.90
17483;DHT22;8858;52.308;20.994;2022-12-16T07:01:06;-2.70;99.90
17483;DHT22;8858;52.308;20.994;2022-12-16T07:03:53;-2.70;99.90
17483;DHT22;8858;52.308;20.994;2022-12-16T07:06:39;-2.70;99.90
17483;DHT22;8858;52.308;20.994;2022-12-16T07:09:27;-2.70;99.90
17483;DHT22;8858;52.308;20.994;2022-12-16T07:12:13;-2.70;99.90
17483;DHT22;8858;52.308;20.994;2022-12-16T07:15:02;-2.70;99.90
17483;DHT22;8858;52.308;20.994;2022-12-16T07:17:48;-2.70;99.90
17483;DHT22;8858;52.308;20.994;2022-12-16T07:20:34;-2.70;99.90
17483;DHT22;8858;52.308;20.994;2022-12-16T07:23:21;-2.70;99.90
17483;DHT22;8858;52.308;20.994;2022-12-16T07:26:11;-2.70;99.90
17483;DHT22;8858;52.308;20.994;2022-12-16T07:28:58;-2.70;99.90
17483;DHT22;8858;52.308;20.994;2022-12-16T07:31:44;-2.70;99.90
17483;DHT22;8858;52.308;20.994;2022-12-16T07:34:30;-2.70;99.90
17483;DHT22;8858;52.308;20.994;2022-12-16T07:37:16;-2.60;99.90
17483;DHT22;8858;52.308;20.994;2022-12-16T07:40:07;-2.60;99.90
17483;DHT22;8858;52.308;20.994;2022-12-16T07:42:54;-2.60;99.90
17483;DHT22;8858;52.308;20.994;2022-12-16T07:45:41;-2.60;99.90
17483;DHT22;8858;52.308;20.994;2022-12-16T07:48:28;-2.60;99.90
17483;DHT22;8858;52.308;20.994;2022-12-16T07:51:18;-2.60;99.90
17483;DHT22;8858;52.308;20.994;2022-12-16T07:54:05;-2.60;99.90
17483;DHT22;8858;52.308;20.994;2022-12-16T07:56:51;-2.50;99.90
17483;DHT22;8858;52.308;20.994;2022-12-16T07:59:39;-2.50;99.90
17483;DHT22;8858;52.308;20.994;2022-12-16T08:02:25;-2.60;99.90
17483;DHT22;8858;52.308;20.994;2022-12-16T08:05:16;-2.40;99.90
17483;DHT22;8858;52.308;20.994;2022-12-16T08:08:03;-2.40;99.90
17483;DHT22;8858;52.308;20.994;2022-12-16T08:10:50;-2.40;99.90
17483;DHT22;8858;52.308;20.994;2022-12-16T08:13:37;-2.40;99.90
17483;DHT22;8858;52.308;20.994;2022-12-16T08:16:28;-2.40;99.90
17483;DHT22;8858;52.308;20.994;2022-12-16T08:19:13;-2.40;99.90
17483;DHT22;8858;52.308;20.994;2022-12-16T08:21:59;-2.40;99.90
17483;DHT22;8858;52.308;20.994;2022-12-16T08:24:46;-2.40;99.90
17483;DHT22;8858;52.308;20.994;2022-12-16T08:27:31;-2.40;99.90
17483;DHT22;8858;52.308;20.994;2022-12-16T08:30:18;-2.30;99.90
17483;DHT22;8858;52.308;20.994;2022-12-16T08:33:07;-2.30;99.90
17483;DHT22;8858;52.308;20.994;2022-12-16T08:35:56;-2.40;99.90
17483;DHT22;8858;52.308;20.994;2022-12-16T08:38:46;-2.30;99.90
17483;DHT22;8858;52.308;20.994;2022-12-16T08:41:35;-2.30;99.90
17483;DHT22;8858;52.308;20.994;2022-12-16T08:44:18;-2.30;99.90
17483;DHT22;8858;52.308;20.994;2022-12-16T08:47:04;-2.30;99.90
17483;DHT22;8858;52.308;20.994;2022-12-16T08:50:07;-2.30;99.90
17483;DHT22;8858;52.308;20.994;2022-12-16T08:52:53;-2.20;99.90
17483;DHT22;8858;52.308;20.994;2022-12-16T08:55:40;-2.20;99.90
17483;DHT22;8858;52.308;20.994;2022-12-16T08:58:27;-2.20;99.90
17483;DHT22;8858;52.308;20.994;2022-12-16T09:01:12;-2.20;99.90
17483;DHT22;8858;52.308;20.994;2022-12-16T09:03:59;-2.10;99.90
17483;DHT22;8858;52.308;20.994;2022-12-16T09:06:46;-2.10;99.90
17483;DHT22;8858;52.308;20.994;2022-12-16T09:09:33;-2.10;99.90
17483;DHT22;8858;52.308;20.994;2022-12-16T09:12:22;-2.10;99.90
17483;DHT22;8858;52.308;20.994;2022-12-16T09:15:08;-2.10;99.90
17483;DHT22;8858;52.308;20.994;2022-12-16T09:17:54;-2.00;99.90
17483;DHT22;8858;52.308;20.994;2022-12-16T09:20:41;-2.00;99.90
17483;DHT22;8858;52.308;20.994;2022-12-16T09:23:32;-2.00;99.90
17483;DHT22;8858;52.308;20.994;2022-12-16T09:26:19;-2.00;99.90
17483;DHT22;8858;52.308;20.994;2022-12-16T09:29:06;-2.00;99.90
17483;DHT22;8858;52.308;20.994;2022-12-16T09:31:53;-1.90;99.90
17483;DHT22;8858;52.308;20.994;2022-12-16T09:34:38;-1.90;99.90
17483;DHT22;8858;52.308;20.994;2022-12-16T09:37:26;-1.80;99.90
17483;DHT22;8858;52.308;20.994;2022-12-16T09:40:15;-1.90;99.90
17483;DHT22;8858;52.308;20.994;2022-12-16T09:43:07;-1.80;99.90
17483;DHT22;8858;52.308;20.994;2022-12-16T09:46:03;-1.80;99.90
17483;DHT22;8858;52.308;20.994;2022-12-16T09:48:55;-1.80;99.90
17483;DHT22;8858;52.308;20.994;2022-12-16T09:51:46;-1.80;99.90
17483;DHT22;8858;52.308;20.994;2022-12-16T09:54:38;-1.70;99.90
17483;DHT22;8858;52.308;20.994;2022-12-16T09:57:28;-1.70;99.90
17483;DHT22;8858;52.308;20.994;2022-12-16T10:00:23;-1.70;99.90
17483;DHT22;8858;52.308;20.994;2022-12-16T10:03:15;-1.70;99.90
17483;DHT22;8858;52.308;20.994;2022-12-16T10:06:09;-1.60;99.90
17483;DHT22;8858;52.308;20.994;2022-12-16T10:09:04;-1.60;99.90
17483;DHT22;8858;52.308;20.994;2022-12-16T10:12:03;-1.60;99.90
17483;DHT22;8858;52.308;20.994;2022-12-16T10:14:59;-1.70;99.90
17483;DHT22;8858;52.308;20.994;2022-12-16T10:17:46;-1.70;99.90
17483;DHT22;8858;52.308;20.994;2022-12-16T10:20:39;-1.70;99.90
17483;DHT22;8858;52.308;20.994;2022-12-16T10:23:37;-1.70;99.90
17483;DHT22;8858;52.308;20.994;2022-12-16T10:26:44;-1.70;99.90
17483;DHT22;8858;52.308;20.994;2022-12-16T10:29:38;-1.70;99.90
17483;DHT22;8858;52.308;20.994;2022-12-16T10:32:32;-1.60;99.90
17483;DHT22;8858;52.308;20.994;2022-12-16T10:35:27;-1.60;99.90
17483;DHT22;8858;52.308;20.994;2022-12-16T10:38:19;-1.70;99.90
17483;DHT22;8858;52.308;20.994;2022-12-16T10:41:08;-1.70;99.90
17483;DHT22;8858;52.308;20.994;2022-12-16T10:43:56;-1.60;99.90
17483;DHT22;8858;52.308;20.994;2022-12-16T10:46:46;-1.60;99.90
17483;DHT22;8858;52.308;20.994;2022-12-16T10:49:34;-1.60;99.90
17483;DHT22;8858;52.308;20.994;2022-12-16T10:52:21;-1.60;99.90
17483;DHT22;8858;52.308;20.994;2022-12-16T10:55:16;-1.50;99.90
17483;DHT22;8858;52.308;20.994;2022-12-16T10:58:16;-1.50;99.90
17483;DHT22;8858;52.308;20.994;2022-12-16T11:01:21;-1.50;99.90
17483;DHT22;8858;52.308;20.994;2022-12-16T11:04:30;-1.50;99.90
17483;DHT22;8858;52.308;20.994;2022-12-16T11:07:36;-1.40;99.90
17483;DHT22;8858;52.308;20.994;2022-12-16T11:10:31;-1.40;99.90
17483;DHT22;8858;52.308;20.994;2022-12-16T11:13:24;-1.40;99.90
17483;DHT22;8858;52.308;20.994;2022-12-16T11:16:13;-1.40;99.90
17483;DHT22;8858;52.308;20.994;2022-12-16T11:19:03;-1.40;99.90
17483;DHT22;8858;52.308;20.994;2022-12-16T11:22:05;-1.40;99.90
17483;DHT22;8858;52.308;20.994;2022-12-16T11:25:05;-1.40;99.90
17483;DHT22;8858;52.308;20.994;2022-12-16T11:28:02;-1.40;99.90
17483;DHT22;8858;52.308;20.994;2022-12-16T11:30:51;-1.40;99.90
17483;DHT22;8858;52.308;20.994;2022-12-16T11:33:38;-1.40;99.90
17483;DHT22;8858;52.308;20.994;2022-12-16T11:36:26;-1.40;99.90
17483;DHT22;8858;52.308;20.994;2022-12-16T11:39:14;-1.40;99.90
17483;DHT22;8858;52.308;20.994;2022-12-16T11:42:03;-1.30;99.90
17483;DHT22;8858;52.308;20.994;2022-12-16T11:44:52;-1.30;99.90
17483;DHT22;8858;52.308;20.994;2022-12-16T11:47:44;-1.30;99.90
17483;DHT22;8858;52.308;20.994;2022-12-16T11:50:37;-1.30;99.90
17483;DHT22;8858;52.308;20.994;2022-12-16T11:53:30;-1.30;99.90
17483;DHT22;8858;52.308;20.994;2022-12-16T11:56:22;-1.30;99.90
17483;DHT22;8858;52.308;20.994;2022-12-16T11:59:18;-1.30;99.90
17483;DHT22;8858;52.308;20.994;2022-12-16T12:02:13;-1.20;99.90
17483;DHT22;8858;52.308;20.994;2022-12-16T12:05:01;-1.20;99.90
17483;DHT22;8858;52.308;20.994;2022-12-16T12:07:51;-1.20;99.90
17483;DHT22;8858;52.308;20.994;2022-12-16T12:10:56;-1.20;99.90
17483;DHT22;8858;52.308;20.994;2022-12-16T12:13:51;-1.20;99.90
17483;DHT22;8858;52.308;20.994;2022-12-16T12:16:47;-1.20;99.90
17483;DHT22;8858;52.308;20.994;2022-12-16T12:19:46;-1.20;99.90
17483;DHT22;8858;52.308;20.994;2022-12-16T12:22:38;-1.10;99.90
17483;DHT22;8858;52.308;20.994;2022-12-16T12:25:32;-1.10;99.90
17483;DHT22;8858;52.308;20.994;2022-12-16T12:28:46;-1.10;99.90
17483;DHT22;8858;52.308;20.994;2022-12-16T12:31:39;-1.10;99.90
17483;DHT22;8858;52.308;20.994;2022-12-16T12:34:36;-1.10;99.90
17483;DHT22;8858;52.308;20.994;2022-12-16T12:37:33;-1.00;99.90
17483;DHT22;8858;52.308;20.994;2022-12-16T12:40:33;-1.00;99.90
17483;DHT22;8858;52.308;20.994;2022-12-16T12:43:34;-1.00;99.90
17483;DHT22;8858;52.308;20.994;2022-12-16T12:46:25;-1.00;99.90
17483;DHT22;8858;52.308;20.994;2022-12-16T12:49:21;-1.00;99.90
17483;DHT22;8858;52.308;20.994;2022-12-16T12:52:23;-1.00;99.90
17483;DHT22;8858;52.308;20.994;2022-12-16T12:55:17;-1.00;99.90
17483;DHT22;8858;52.308;20.994;2022-12-16T12:58:09;-1.00;99.90
17483;DHT22;8858;52.308;20.994;2022-12-16T13:01:00;-1.00;99.90
17483;DHT22;8858;52.308;20.994;2022-12-16T13:03:51;-1.00;99.90
17483;DHT22;8858;52.308;20.994;2022-12-16T13:06:38;-1.00;99.90
17483;DHT22;8858;52.308;20.994;2022-12-16T13:09:29;-1.10;99.90
17483;DHT22;8858;52.308;20.994;2022-12-16T13:12:25;-1.10;99.90
17483;DHT22;8858;52.308;20.994;2022-12-16T13:15:32;-1.20;99.90
17483;DHT22;8858;52.308;20.994;2022-12-16T13:18:28;-1.20;99.90
17483;DHT22;8858;52.308;20.994;2022-12-16T13:21:43;-1.20;99.90
17483;DHT22;8858;52.308;20.994;2022-12-16T13:24:41;-1.20;99.90
17483;DHT22;8858;52.308;20.994;2022-12-16T13:27:30;-1.30;99.90
17483;DHT22;8858;52.308;20.994;2022-12-16T13:30:32;-1.20;99.90
17483;DHT22;8858;52.308;20.994;2022-12-16T13:33:24;-1.30;99.90
17483;DHT22;8858;52.308;20.994;2022-12-16T13:36:13;-1.30;99.90
17483;DHT22;8858;52.308;20.994;2022-12-16T13:39:16;-1.30;99.90
17483;DHT22;8858;52.308;20.994;2022-12-16T13:42:34;-1.30;99.90
17483;DHT22;8858;52.308;20.994;2022-12-16T13:45:35;-1.30;99.90
17483;DHT22;8858;52.308;20.994;2022-12-16T13:48:37;-1.40;99.90
17483;DHT22;8858;52.308;20.994;2022-12-16T13:54:58;-1.30;99.90
17483;DHT22;8858;52.308;20.994;2022-12-16T13:57:54;-1.40;99.90
17483;DHT22;8858;52.308;20.994;2022-12-16T14:00:54;-1.40;99.90
17483;DHT22;8858;52.308;20.994;2022-12-16T14:03:44;-1.50;99.90
17483;DHT22;8858;52.308;20.994;2022-12-16T14:06:37;-1.50;99.90
17483;DHT22;8858;52.308;20.994;2022-12-16T14:09:33;-1.50;99.90
17483;DHT22;8858;52.308;20.994;2022-12-16T14:12:45;-1.50;99.90
17483;DHT22;8858;52.308;20.994;2022-12-16T14:15:43;-1.60;99.90
17483;DHT22;8858;52.308;20.994;2022-12-16T14:18:40;-1.60;99.90
17483;DHT22;8858;52.308;20.994;2022-12-16T14:21:36;-1.60;99.90
17483;DHT22;8858;52.308;20.994;2022-12-16T14:24:25;-1.60;99.90
17483;DHT22;8858;52.308;20.994;2022-12-16T14:27:17;-1.60;99.90
17483;DHT22;8858;52.308;20.994;2022-12-16T14:30:15;-1.60;99.90
17483;DHT22;8858;52.308;20.994;2022-12-16T14:33:22;-1.60;99.90
17483;DHT22;8858;52.308;20.994;2022-12-16T14:36:22;-1.60;99.90
17483;DHT22;8858;52.308;20.994;2022-12-16T14:39:10;-1.60;99.90
17483;DHT22;8858;52.308;20.994;2022-12-16T14:41:57;-1.60;99.90
17483;DHT22;8858;52.308;20.994;2022-12-16T14:44:44;-1.70;99.90
17483;DHT22;8858;52.308;20.994;2022-12-16T14:47:31;-1.70;99.90
17483;DHT22;8858;52.308;20.994;2022-12-16T14:50:25;-1.70;99.90
17483;DHT22;8858;52.308;20.994;2022-12-16T14:53:15;-1.70;99.90
17483;DHT22;8858;52.308;20.994;2022-12-16T14:56:15;-1.70;99.90
17483;DHT22;8858;52.308;20.994;2022-12-16T14:59:12;-1.70;99.90
17483;DHT22;8858;52.308;20.994;2022-12-16T15:02:12;-1.70;99.90
17483;DHT22;8858;52.308;20.994;2022-12-16T15:05:00;-1.80;99.90
17483;DHT22;8858;52.308;20.994;2022-12-16T15:07:50;-1.70;99.90
17483;DHT22;8858;52.308;20.994;2022-12-16T15:10:36;-1.70;99.90
17483;DHT22;8858;52.308;20.994;2022-12-16T15:13:23;-1.70;99.90
17483;DHT22;8858;52.308;20.994;2022-12-16T15:16:14;-1.70;99.90
17483;DHT22;8858;52.308;20.994;2022-12-16T15:19:04;-1.80;99.90
17483;DHT22;8858;52.308;20.994;2022-12-16T15:21:51;-1.80;99.90
17483;DHT22;8858;52.308;20.994;2022-12-16T15:24:38;-1.80;99.90
17483;DHT22;8858;52.308;20.994;2022-12-16T15:27:26;-1.70;99.90
17483;DHT22;8858;52.308;20.994;2022-12-16T15:30:33;-1.70;99.90
17483;DHT22;8858;52.308;20.994;2022-12-16T15:33:22;-1.70;99.90
17483;DHT22;8858;52.308;20.994;2022-12-16T15:36:24;-1.70;99.90
17483;DHT22;8858;52.308;20.994;2022-12-16T15:39:20;-1.70;99.90
17483;DHT22;8858;52.308;20.994;2022-12-16T15:42:19;-1.70;99.90
17483;DHT22;8858;52.308;20.994;2022-12-16T15:45:15;-1.70;99.90
17483;DHT22;8858;52.308;20.994;2022-12-16T15:48:11;-1.60;99.90
17483;DHT22;8858;52.308;20.994;2022-12-16T15:50:56;-1.70;99.90
17483;DHT22;8858;52.308;20.994;2022-12-16T15:53:42;-1.70;99.90
17483;DHT22;8858;52.308;20.994;2022-12-16T15:56:40;-1.70;99.90
17483;DHT22;8858;52.308;20.994;2022-12-16T15:59:29;-1.70;99.90
17483;DHT22;8858;52.308;20.994;2022-12-16T16:02:20;-1.70;99.90
17483;DHT22;8858;52.308;20.994;2022-12-16T16:05:11;-1.70;99.90
17483;DHT22;8858;52.308;20.994;2022-12-16T16:07:58;-1.70;99.90
17483;DHT22;8858;52.308;20.994;2022-12-16T16:10:45;-1.70;99.90
17483;DHT22;8858;52.308;20.994;2022-12-16T16:13:32;-1.70;99.90
17483;DHT22;8858;52.308;20.994;2022-12-16T16:16:19;-1.70;99.90
17483;DHT22;8858;52.308;20.994;2022-12-16T16:19:10;-1.60;99.90
17483;DHT22;8858;52.308;20.994;2022-12-16T16:22:14;-1.70;99.90
17483;DHT22;8858;52.308;20.994;2022-12-16T16:25:04;-1.60;99.90
17483;DHT22;8858;52.308;20.994;2022-12-16T16:27:50;-1.60;99.90
17483;DHT22;8858;52.308;20.994;2022-12-16T16:30:36;-1.60;99.90
17483;DHT22;8858;52.308;20.994;2022-12-16T16:33:27;-1.60;99.90
17483;DHT22;8858;52.308;20.994;2022-12-16T16:36:15;-1.60;99.90
17483;DHT22;8858;52.308;20.994;2022-12-16T16:39:01;-1.60;99.90
17483;DHT22;8858;52.308;20.994;2022-12-16T16:41:47;-1.60;99.90
17483;DHT22;8858;52.308;20.994;2022-12-16T16:44:33;-1.60;99.90
17483;DHT22;8858;52.308;20.994;2022-12-16T16:47:22;-1.60;99.90
17483;DHT22;8858;52.308;20.994;2022-12-16T16:50:12;-1.60;99.90
17483;DHT22;8858;52.308;20.994;2022-12-16T16:52:58;-1.60;99.90
17483;DHT22;8858;52.308;20.994;2022-12-16T16:55:45;-1.60;99.90
17483;DHT22;8858;52.308;20.994;2022-12-16T16:58:35;-1.70;99.90
17483;DHT22;8858;52.308;20.994;2022-12-16T17:01:20;-1.70;99.90
17483;DHT22;8858;52.308;20.994;2022-12-16T17:04:07;-1.70;99.90
17483;DHT22;8858;52.308;20.994;2022-12-16T17:06:54;-1.60;99.90
17483;DHT22;8858;52.308;20.994;2022-12-16T17:09:41;-1.60;99.90
17483;DHT22;8858;52.308;20.994;2022-12-16T17:12:28;-1.60;99.90
17483;DHT22;8858;52.308;20.994;2022-12-16T17:15:16;-1.70;99.90
17483;DHT22;8858;52.308;20.994;2022-12-16T17:18:05;-1.60;99.90
17483;DHT22;8858;52.308;20.994;2022-12-16T17:20:51;-1.70;99.90
17483;DHT22;8858;52.308;20.994;2022-12-16T17:23:39;-1.60;99.90
17483;DHT22;8858;52.308;20.994;2022-12-16T17:26:28;-1.70;99.90
17483;DHT22;8858;52.308;20.994;2022-12-16T17:29:17;-1.70;99.90
17483;DHT22;8858;52.308;20.994;2022-12-16T17:32:06;-1.70;99.90
17483;DHT22;8858;52.308;20.994;2022-12-16T17:34:53;-1.70;99.90